createdAt,value
2019-02-09T00:01:47.703Z,1.27
2019-02-09T00:04:17.489Z,1.40
2019-02-09T00:06:47.328Z,1.50
2019-02-09T00:09:18.054Z,1.47
2019-02-09T00:11:47.948Z,1.53
2019-02-09T00:14:17.981Z,1.70
2019-02-09T00:16:48.909Z,1.50
2019-02-09T00:19:18.730Z,1.40
2019-02-09T00:21:48.535Z,1.50
2019-02-09T00:24:18.894Z,1.73
2019-02-09T00:26:49.629Z,1.40
2019-02-09T00:29:19.481Z,1.50
2019-02-09T00:31:50.577Z,1.40
2019-02-09T00:34:20.387Z,1.60
2019-02-09T00:36:50.228Z,1.20
2019-02-09T00:39:22.321Z,1.47
2019-02-09T00:41:52.941Z,1.37
2019-02-09T00:44:23.572Z,1.50
2019-02-09T00:46:53.364Z,1.60
2019-02-09T00:49:23.269Z,1.57
2019-02-09T00:51:53.980Z,1.30
2019-02-09T00:54:23.832Z,1.33
2019-02-09T00:56:53.610Z,1.27
2019-02-09T00:59:23.656Z,1.37
2019-02-09T01:01:54.175Z,1.10
2019-02-09T01:04:23.988Z,1.50
2019-02-09T01:06:54.435Z,1.53
2019-02-09T01:09:24.657Z,1.20
2019-02-09T01:11:54.515Z,1.27
2019-02-09T01:14:24.283Z,1.57
2019-02-09T01:16:55.166Z,1.43
2019-02-09T01:19:25.057Z,1.40
2019-02-09T01:21:54.942Z,1.60
2019-02-09T01:24:25.430Z,1.70
2019-02-09T01:26:55.367Z,1.40
2019-02-09T01:29:25.472Z,1.70
2019-02-09T01:31:55.569Z,1.73
2019-02-09T01:34:25.969Z,1.57
2019-02-09T01:36:55.785Z,1.40
2019-02-09T01:39:25.888Z,1.60
2019-02-09T01:41:56.284Z,1.50
2019-02-09T01:44:26.114Z,1.57
2019-02-09T01:46:55.869Z,1.50
2019-02-09T01:49:26.095Z,1.50
2019-02-09T01:51:56.781Z,1.57
2019-02-09T01:54:26.609Z,1.50
2019-02-09T01:56:56.666Z,1.50
2019-02-09T01:59:26.849Z,1.70
2019-02-09T02:01:56.598Z,1.50
2019-02-09T02:04:26.433Z,1.77
2019-02-09T02:06:56.672Z,1.70
2019-02-09T02:09:26.620Z,1.60
2019-02-09T02:11:56.782Z,2.00
2019-02-09T02:14:27.132Z,1.53
2019-02-09T02:16:56.950Z,1.83
2019-02-09T02:19:26.722Z,1.80
2019-02-09T02:21:56.570Z,1.67
2019-02-09T02:24:27.263Z,1.70
2019-02-09T02:26:57.080Z,1.73
2019-02-09T02:29:26.995Z,1.50
2019-02-09T02:31:57.403Z,1.77
2019-02-09T02:34:27.178Z,1.63
2019-02-09T02:36:57.006Z,1.70
2019-02-09T02:39:28.797Z,1.50
2019-02-09T02:41:59.366Z,1.70
2019-02-09T02:44:29.190Z,1.73
2019-02-09T02:46:58.964Z,1.50
2019-02-09T02:49:28.975Z,1.90
2019-02-09T02:51:59.340Z,1.53
2019-02-09T02:54:29.171Z,1.53
2019-02-09T02:56:59.569Z,1.90
2019-02-09T02:59:30.151Z,1.70
2019-02-09T03:01:59.934Z,1.80
2019-02-09T03:04:29.779Z,1.83
2019-02-09T03:07:00.158Z,1.90
2019-02-09T03:09:30.475Z,1.57
2019-02-09T03:12:00.453Z,1.60
2019-02-09T03:14:30.788Z,1.80
2019-02-09T03:17:00.624Z,1.80
2019-02-09T03:19:31.611Z,2.10
2019-02-09T03:22:02.686Z,1.83
2019-02-09T03:24:32.749Z,1.80
2019-02-09T03:27:02.632Z,1.83
2019-02-09T03:29:33.336Z,1.70
2019-02-09T03:32:03.259Z,1.90
2019-02-09T03:34:33.015Z,2.10
2019-02-09T03:37:02.971Z,1.57
2019-02-09T03:39:33.705Z,1.83
2019-02-09T03:42:03.488Z,1.93
2019-02-09T03:44:33.501Z,2.10
2019-02-09T03:47:04.173Z,2.03
2019-02-09T03:49:33.984Z,1.90
2019-02-09T03:52:03.746Z,1.83
2019-02-09T03:54:33.991Z,2.27
2019-02-09T03:57:04.434Z,1.73
2019-02-09T03:59:34.248Z,1.80
2019-02-09T04:02:04.708Z,1.97
2019-02-09T04:04:34.729Z,1.80
2019-02-09T04:07:04.525Z,1.97
2019-02-09T04:09:34.366Z,1.87
2019-02-09T04:12:04.785Z,1.87
2019-02-09T04:14:34.785Z,1.90
2019-02-09T04:17:04.618Z,1.93
2019-02-09T04:19:36.556Z,2.27
2019-02-09T04:22:06.374Z,2.13
2019-02-09T04:24:36.160Z,1.90
2019-02-09T04:27:06.274Z,2.03
2019-02-09T04:29:36.537Z,2.30
2019-02-09T04:32:06.415Z,1.80
2019-02-09T04:34:36.746Z,2.17
2019-02-09T04:37:07.654Z,2.30
2019-02-09T04:39:37.431Z,2.13
2019-02-09T04:42:07.284Z,2.03
2019-02-09T04:44:37.986Z,1.97
2019-02-09T04:47:08.964Z,2.10
2019-02-09T04:49:39.633Z,2.80
2019-02-09T04:52:09.753Z,2.60
2019-02-09T04:54:40.105Z,2.50
2019-02-09T04:57:10.735Z,2.53
2019-02-09T04:59:40.545Z,2.20
2019-02-09T05:02:10.313Z,2.47
2019-02-09T05:04:40.506Z,2.67
2019-02-09T05:07:10.756Z,2.20
2019-02-09T05:09:40.630Z,1.97
2019-02-09T05:12:10.596Z,2.27
2019-02-09T05:14:40.406Z,1.93
2019-02-09T05:17:10.976Z,2.27
2019-02-09T05:19:40.947Z,2.50
2019-02-09T05:22:11.161Z,2.37
2019-02-09T05:24:41.408Z,2.03
2019-02-09T05:27:13.516Z,2.00
2019-02-09T05:29:43.307Z,1.90
2019-02-09T05:32:14.354Z,1.80
2019-02-09T05:34:44.407Z,2.00
2019-02-09T05:37:14.435Z,2.00
2019-02-09T05:39:45.596Z,2.13
2019-02-09T05:42:15.398Z,1.90
2019-02-09T05:44:45.163Z,2.53
2019-02-09T05:47:16.005Z,1.90
2019-02-09T05:49:45.951Z,2.40
2019-02-09T05:52:15.965Z,2.00
2019-02-09T05:54:46.652Z,1.90
2019-02-09T05:57:16.485Z,2.33
2019-02-09T05:59:46.236Z,2.10
2019-02-09T06:02:16.008Z,1.90
2019-02-09T06:04:45.962Z,2.00
2019-02-09T06:07:16.349Z,1.83
2019-02-09T06:09:46.157Z,2.27
2019-02-09T06:12:15.946Z,2.17
2019-02-09T06:14:46.148Z,1.83
2019-02-09T06:17:16.735Z,2.10
2019-02-09T06:19:46.583Z,2.07
2019-02-09T06:22:17.658Z,2.17
2019-02-09T06:24:47.943Z,2.10
2019-02-09T06:27:18.335Z,2.07
2019-02-09T06:29:49.434Z,1.53
2019-02-09T06:32:19.304Z,2.03
2019-02-09T06:34:49.148Z,1.80
2019-02-09T06:37:19.714Z,1.73
2019-02-09T06:39:50.054Z,1.50
2019-02-09T06:42:19.988Z,1.53
2019-02-09T06:44:50.807Z,1.13
2019-02-09T06:47:20.614Z,1.30
2019-02-09T06:49:50.448Z,1.30
2019-02-09T06:52:21.068Z,1.43
2019-02-09T06:54:52.188Z,1.17
2019-02-09T06:57:22.023Z,1.10
2019-02-09T06:59:52.467Z,0.87
2019-02-09T07:02:22.513Z,1.10
2019-02-09T07:04:52.315Z,1.10
2019-02-09T07:07:22.171Z,0.90
2019-02-09T07:09:52.534Z,0.90
2019-02-09T07:12:22.855Z,0.80
2019-02-09T07:14:52.741Z,0.80
2019-02-09T07:17:23.454Z,0.80
2019-02-09T07:19:53.823Z,1.13
2019-02-09T07:22:23.608Z,0.90
2019-02-09T07:24:55.074Z,1.00
2019-02-09T07:27:25.196Z,1.57
2019-02-09T07:29:55.025Z,1.30
2019-02-09T07:32:25.975Z,1.20
2019-02-09T07:34:56.275Z,1.40
2019-02-09T07:37:26.007Z,1.10
2019-02-09T07:39:55.973Z,1.30
2019-02-09T07:42:26.849Z,1.00
2019-02-09T07:44:56.653Z,1.30
2019-02-09T07:47:27.170Z,0.90
2019-02-09T07:49:57.187Z,0.80
2019-02-09T07:52:27.099Z,1.00
2019-02-09T07:54:56.896Z,1.27
2019-02-09T07:57:27.741Z,0.90
2019-02-09T07:59:57.561Z,0.87
2019-02-09T08:02:27.770Z,1.10
2019-02-09T08:04:57.573Z,0.83
2019-02-09T08:07:28.561Z,0.83
2019-02-09T08:09:58.381Z,1.00
2019-02-09T08:12:28.224Z,0.87
2019-02-09T08:14:58.018Z,0.97
2019-02-09T08:17:28.695Z,1.00
2019-02-09T08:19:58.547Z,1.03
2019-02-09T08:22:28.436Z,0.87
2019-02-09T08:24:58.985Z,1.13
2019-02-09T08:27:28.898Z,1.00
2019-02-09T08:29:58.719Z,0.90
2019-02-09T08:32:28.502Z,0.87
2019-02-09T08:34:58.772Z,1.17
2019-02-09T08:37:28.557Z,0.90
2019-02-09T08:39:58.864Z,0.80
2019-02-09T08:42:29.402Z,0.80
2019-02-09T08:44:59.212Z,0.80
2019-02-09T08:47:29.016Z,0.90
2019-02-09T08:49:59.329Z,0.90
2019-02-09T08:52:29.809Z,1.00
2019-02-09T08:54:59.593Z,0.87
2019-02-09T08:57:30.366Z,0.90
2019-02-09T09:00:00.564Z,0.90
2019-02-09T09:02:30.386Z,1.13
2019-02-09T09:05:00.452Z,0.80
2019-02-09T09:07:31.071Z,0.80
2019-02-09T09:10:00.862Z,0.93
2019-02-09T09:12:31.042Z,0.70
2019-02-09T09:15:01.425Z,0.90
2019-02-09T09:17:31.227Z,0.73
2019-02-09T09:20:01.021Z,0.90
2019-02-09T09:22:31.918Z,1.03
2019-02-09T09:25:01.785Z,0.80
2019-02-09T09:27:32.627Z,1.10
2019-02-09T09:30:02.679Z,0.90
2019-02-09T09:32:32.745Z,1.23
2019-02-09T09:35:03.850Z,0.97
2019-02-09T09:37:33.727Z,0.57
2019-02-09T09:40:04.270Z,0.90
2019-02-09T09:42:34.595Z,0.90
2019-02-09T09:45:05.635Z,1.00
2019-02-09T09:47:36.334Z,0.87
2019-02-09T09:50:06.785Z,1.30
2019-02-09T09:52:37.680Z,0.80
2019-02-09T09:55:08.060Z,0.90
2019-02-09T09:57:37.904Z,1.10
2019-02-09T10:00:09.203Z,1.00
2019-02-09T10:02:39.439Z,1.83
2019-02-09T10:05:09.648Z,0.97
2019-02-09T10:07:40.683Z,0.90
2019-02-09T10:10:12.835Z,1.07
2019-02-09T10:12:42.661Z,1.10
2019-02-09T10:15:14.781Z,0.80
2019-02-09T10:17:44.603Z,0.90
2019-02-09T10:20:17.146Z,1.23
2019-02-09T10:22:46.975Z,0.87
2019-02-09T10:25:16.807Z,1.07
2019-02-09T10:27:47.245Z,1.20
2019-02-09T10:30:19.387Z,1.13
2019-02-09T10:32:49.479Z,1.00
2019-02-09T10:35:21.090Z,1.00
2019-02-09T10:37:50.888Z,0.90
2019-02-09T10:40:22.824Z,1.20
2019-02-09T10:42:53.826Z,1.27
2019-02-09T10:45:25.307Z,1.10
2019-02-09T10:47:56.139Z,1.20
2019-02-09T10:50:30.776Z,0.90
2019-02-09T10:53:00.564Z,0.80
2019-02-09T10:55:30.445Z,0.87
2019-02-09T10:58:00.618Z,1.33
2019-02-09T11:00:33.815Z,1.20
2019-02-09T11:03:04.497Z,0.93
2019-02-09T11:05:34.845Z,1.17
2019-02-09T11:08:04.672Z,0.97
2019-02-09T11:10:34.501Z,1.00
2019-02-09T11:13:05.577Z,1.10
2019-02-09T11:15:35.356Z,1.20
2019-02-09T11:18:06.088Z,0.83
2019-02-09T11:20:36.884Z,1.10
2019-02-09T11:23:06.753Z,0.80
2019-02-09T11:25:37.375Z,1.03
2019-02-09T11:28:07.535Z,1.03
2019-02-09T11:30:38.244Z,1.07
2019-02-09T11:33:08.045Z,1.20
2019-02-09T11:35:37.947Z,1.10
2019-02-09T11:38:08.585Z,0.90
2019-02-09T11:40:41.731Z,1.23
2019-02-09T11:43:12.214Z,1.03
2019-02-09T11:45:42.402Z,1.00
2019-02-09T11:48:12.187Z,0.97
2019-02-09T11:50:43.404Z,1.10
2019-02-09T11:53:13.714Z,0.97
2019-02-09T11:55:43.567Z,0.93
2019-02-09T11:58:13.370Z,1.10
2019-02-09T12:00:49.083Z,0.83
2019-02-09T12:03:19.918Z,0.97
2019-02-09T12:05:50.033Z,0.93
2019-02-09T12:08:19.829Z,0.90
2019-02-09T12:10:49.644Z,0.97
2019-02-09T12:13:20.344Z,1.10
2019-02-09T12:15:50.542Z,0.80
2019-02-09T12:18:20.708Z,1.00
2019-02-09T12:20:50.880Z,1.00
2019-02-09T12:23:20.715Z,1.20
2019-02-09T12:25:50.510Z,0.80
2019-02-09T12:28:20.762Z,0.87
2019-02-09T12:30:50.949Z,1.17
2019-02-09T12:33:23.177Z,1.17
2019-02-09T12:35:52.894Z,0.70
2019-02-09T12:38:23.017Z,1.07
2019-02-09T12:40:53.276Z,1.07
2019-02-09T12:43:23.071Z,1.10
2019-02-09T12:45:52.915Z,0.80
2019-02-09T12:48:22.740Z,0.93
2019-02-09T12:50:52.933Z,1.00
2019-02-09T12:53:22.830Z,1.00
2019-02-09T12:55:56.651Z,0.93
2019-02-09T12:58:26.971Z,1.03
2019-02-09T13:00:56.923Z,1.13
2019-02-09T13:03:31.461Z,0.97
2019-02-09T13:05:58.808Z,1.00
2019-02-09T13:08:29.183Z,1.10
2019-02-09T13:10:59.373Z,1.40
2019-02-09T13:13:29.222Z,1.60
2019-02-09T13:16:00.022Z,1.50
2019-02-09T13:18:30.039Z,1.30
2019-02-09T13:20:59.814Z,0.90
2019-02-09T13:23:29.665Z,1.20
2019-02-09T13:29:43.663Z,1.03
2019-02-09T13:32:13.444Z,1.23
2019-02-09T13:34:43.511Z,0.97
2019-02-09T13:37:14.108Z,1.00
2019-02-09T13:39:43.974Z,1.30
2019-02-09T13:42:14.270Z,1.00
2019-02-09T13:44:44.211Z,0.93
2019-02-09T13:47:14.030Z,1.23
2019-02-09T13:49:43.901Z,1.17
2019-02-09T13:52:14.582Z,0.93
2019-02-09T13:54:44.729Z,1.20
2019-02-09T13:57:14.555Z,1.10
2019-02-09T13:59:45.415Z,1.60
2019-02-09T14:02:16.297Z,1.50
2019-02-09T14:04:46.149Z,1.33
2019-02-09T14:07:16.400Z,1.40
2019-02-09T14:09:46.930Z,1.40
2019-02-09T14:12:16.791Z,1.20
2019-02-09T14:14:47.348Z,1.20
2019-02-09T14:17:17.545Z,1.17
2019-02-09T14:19:48.053Z,1.53
2019-02-09T14:22:18.298Z,1.43
2019-02-09T14:24:48.592Z,0.93
2019-02-09T14:27:20.005Z,1.07
2019-02-09T14:29:50.624Z,1.10
2019-02-09T14:32:20.532Z,0.90
2019-02-09T14:34:50.319Z,1.07
2019-02-09T14:37:20.292Z,1.13
2019-02-09T14:39:50.988Z,1.10
2019-02-09T14:42:20.908Z,1.23
2019-02-09T14:44:51.438Z,1.13
2019-02-09T14:47:22.823Z,1.17
2019-02-09T14:49:52.673Z,1.20
2019-02-09T14:52:22.488Z,1.30
2019-02-09T14:54:53.071Z,1.27
2019-02-09T14:57:23.885Z,1.40
2019-02-09T14:59:54.005Z,1.17
2019-02-09T15:02:23.778Z,1.50
2019-02-09T15:04:54.133Z,1.40
2019-02-09T15:07:25.397Z,1.40
2019-02-09T15:09:55.811Z,1.13
2019-02-09T15:12:26.813Z,1.20
2019-02-09T15:14:56.735Z,0.90
2019-02-09T15:17:26.536Z,1.30
2019-02-09T15:20:00.260Z,1.30
2019-02-09T15:22:30.036Z,1.20
2019-02-09T15:25:00.507Z,1.60
2019-02-09T15:27:30.830Z,1.27
2019-02-09T15:30:00.624Z,1.30
2019-02-09T15:32:30.456Z,1.13
2019-02-09T15:35:01.458Z,1.10
2019-02-09T15:37:31.618Z,1.13
2019-02-09T15:40:01.889Z,1.20
2019-02-09T15:42:32.418Z,1.30
2019-02-09T15:45:02.928Z,1.20
2019-02-09T15:47:32.764Z,1.50
2019-02-09T15:50:03.611Z,1.00
2019-02-09T15:52:33.899Z,1.40
2019-02-09T15:55:05.073Z,1.17
2019-02-09T15:57:35.476Z,1.53
2019-02-09T16:00:06.936Z,1.07
2019-02-09T16:02:37.154Z,1.20
2019-02-09T16:05:08.264Z,1.40
2019-02-09T16:07:38.287Z,1.80
2019-02-09T16:10:09.510Z,1.23
2019-02-09T16:12:39.332Z,1.43
2019-02-09T16:15:12.250Z,1.70
2019-02-09T16:17:42.049Z,1.20
2019-02-09T16:20:14.538Z,1.03
2019-02-09T16:22:45.396Z,1.27
2019-02-09T16:25:15.177Z,1.17
2019-02-09T16:27:45.439Z,1.27
2019-02-09T16:30:18.674Z,1.30
2019-02-09T16:32:49.047Z,1.23
2019-02-09T16:35:21.059Z,1.43
2019-02-09T16:37:50.941Z,1.63
2019-02-09T16:40:23.065Z,1.33
2019-02-09T16:42:53.901Z,1.60
2019-02-09T16:45:34.072Z,1.67
2019-02-09T16:48:04.890Z,1.37
2019-02-09T16:50:34.647Z,1.50
2019-02-09T16:53:05.115Z,1.60
2019-02-09T16:55:35.165Z,1.47
2019-02-09T16:58:04.961Z,1.50
2019-02-09T17:00:39.617Z,1.93
2019-02-09T17:03:10.346Z,1.60
2019-02-09T17:05:40.830Z,1.77
2019-02-09T17:08:10.996Z,1.83
2019-02-09T17:10:40.851Z,1.60
2019-02-09T17:13:10.663Z,1.33
2019-02-09T17:15:41.043Z,1.57
2019-02-09T17:18:11.251Z,1.40
2019-02-09T17:20:41.097Z,1.60
2019-02-09T17:23:11.693Z,1.60
2019-02-09T17:25:41.631Z,1.40
2019-02-09T17:28:11.454Z,2.00
2019-02-09T17:30:41.323Z,2.10
2019-02-09T17:33:11.893Z,1.60
2019-02-09T17:35:42.255Z,1.27
2019-02-09T17:38:12.831Z,1.60
2019-02-09T17:40:45.842Z,1.47
2019-02-09T17:43:16.333Z,1.00
2019-02-09T17:45:51.912Z,1.10
2019-02-09T17:48:22.929Z,1.40
2019-02-09T17:50:52.722Z,1.13
2019-02-09T17:53:23.105Z,1.20
2019-02-09T17:55:53.202Z,0.90
2019-02-09T17:58:24.272Z,0.80
2019-02-09T18:00:58.613Z,1.13
2019-02-09T18:03:29.023Z,1.10
2019-02-09T18:05:58.818Z,1.03
2019-02-09T18:08:28.643Z,1.13
2019-02-09T18:10:58.995Z,1.00
2019-02-09T18:13:29.349Z,1.17
2019-02-09T18:15:59.154Z,1.10
2019-02-09T18:18:29.800Z,1.03
2019-02-09T18:21:00.032Z,0.67
2019-02-09T18:23:29.901Z,1.17
2019-02-09T18:25:59.829Z,0.97
2019-02-09T18:28:30.442Z,1.70
2019-02-09T18:31:00.383Z,1.60
2019-02-09T18:33:30.656Z,1.40
2019-02-09T18:36:00.950Z,1.30
2019-02-09T18:38:30.778Z,1.30
2019-02-09T18:41:00.858Z,1.40
2019-02-09T18:43:31.354Z,1.17
2019-02-09T18:46:01.521Z,1.40
2019-02-09T18:48:31.345Z,1.20
2019-02-09T18:51:01.879Z,1.40
2019-02-09T18:53:32.000Z,1.60
2019-02-09T18:56:01.803Z,1.20
2019-02-09T18:58:31.637Z,1.30
2019-02-09T19:01:02.376Z,1.40
2019-02-09T19:03:32.352Z,1.27
2019-02-09T19:06:02.530Z,1.60
2019-02-09T19:08:32.955Z,1.10
2019-02-09T19:11:02.763Z,1.40
2019-02-09T19:13:32.631Z,1.47
2019-02-09T19:16:02.809Z,1.93
2019-02-09T19:18:33.066Z,1.80
2019-02-09T19:21:03.458Z,1.70
2019-02-09T19:23:34.584Z,2.10
2019-02-09T19:26:04.374Z,1.87
2019-02-09T19:28:34.204Z,1.90
2019-02-09T19:31:04.393Z,2.27
2019-02-09T19:33:34.983Z,2.10
2019-02-09T19:36:04.815Z,2.13
2019-02-09T19:38:34.994Z,2.27
2019-02-09T19:41:05.386Z,2.63
2019-02-09T19:43:35.185Z,2.37
2019-02-09T19:46:05.437Z,2.00
2019-02-09T19:48:35.617Z,2.30
2019-02-09T19:51:05.891Z,2.83
2019-02-09T19:53:35.719Z,1.90
2019-02-09T19:56:06.590Z,2.10
2019-02-09T19:58:36.382Z,2.10
2019-02-09T20:01:06.202Z,1.80
2019-02-09T20:03:36.041Z,2.23
2019-02-09T20:06:07.592Z,2.20
2019-02-09T20:08:37.467Z,2.23
2019-02-09T20:11:07.266Z,2.10
2019-02-09T20:13:37.699Z,2.13
2019-02-09T20:16:07.550Z,1.80
2019-02-09T20:18:37.499Z,1.70
2019-02-09T20:21:08.724Z,1.87
2019-02-09T20:23:38.711Z,1.47
2019-02-09T20:26:08.531Z,1.63
2019-02-09T20:28:39.159Z,2.00
2019-02-09T20:31:09.108Z,2.10
2019-02-09T20:33:38.918Z,2.30
2019-02-09T20:36:08.835Z,1.90
2019-02-09T20:38:39.895Z,2.17
2019-02-09T20:41:10.633Z,2.10
2019-02-09T20:43:41.356Z,2.30
2019-02-09T20:46:11.633Z,2.00
2019-02-09T20:48:41.436Z,1.70
2019-02-09T20:51:11.333Z,2.00
2019-02-09T20:53:41.936Z,1.93
2019-02-09T20:56:11.943Z,3.53
2019-02-09T20:58:42.111Z,9.30
2019-02-09T21:01:12.275Z,5.37
2019-02-09T21:03:42.207Z,4.13
2019-02-09T21:06:12.015Z,4.00
2019-02-09T21:08:42.346Z,4.17
2019-02-09T21:11:13.154Z,4.00
2019-02-09T21:13:42.986Z,3.37
2019-02-09T21:16:13.343Z,2.80
2019-02-09T21:18:43.616Z,2.90
2019-02-09T21:21:13.403Z,2.53
2019-02-09T21:23:43.248Z,2.07
2019-02-09T21:26:13.974Z,2.43
2019-02-09T21:28:43.833Z,2.27
2019-02-09T21:31:14.025Z,2.33
2019-02-09T21:33:44.396Z,1.90
2019-02-09T21:36:14.245Z,2.50
2019-02-09T21:38:44.084Z,2.60
2019-02-09T21:41:14.211Z,2.10
2019-02-09T21:43:45.719Z,2.03
2019-02-09T21:46:15.573Z,2.17
2019-02-09T21:48:45.622Z,2.13
2019-02-09T21:51:15.466Z,1.80
2019-02-09T21:53:45.279Z,2.00
2019-02-09T21:56:15.043Z,2.13
2019-02-09T21:58:45.681Z,2.20
2019-02-09T22:01:15.826Z,2.10
2019-02-09T22:03:45.736Z,1.93
2019-02-09T22:06:16.795Z,1.90
2019-02-09T22:08:47.113Z,2.10
2019-02-09T22:11:17.015Z,2.10
2019-02-09T22:13:47.161Z,2.20
2019-02-09T22:16:17.647Z,2.10
2019-02-09T22:18:47.714Z,2.00
2019-02-09T22:21:18.720Z,1.77
2019-02-09T22:23:48.721Z,1.90
2019-02-09T22:26:19.005Z,1.70
2019-02-09T22:28:49.674Z,2.10
2019-02-09T22:31:21.887Z,2.07
2019-02-09T22:33:52.397Z,2.50
2019-02-09T22:36:22.936Z,1.93
2019-02-09T22:38:53.590Z,1.83
2019-02-09T22:41:24.424Z,2.10
2019-02-09T22:43:54.593Z,2.10
2019-02-09T22:46:25.318Z,2.23
2019-02-09T22:48:55.596Z,2.27
2019-02-09T22:51:26.005Z,2.07
2019-02-09T22:53:56.817Z,2.27
2019-02-09T22:56:27.266Z,1.80
2019-02-09T22:58:57.588Z,1.80
2019-02-09T23:01:45.409Z,1.80
2019-02-09T23:05:14.527Z,1.77
2019-02-09T23:07:44.810Z,1.77
2019-02-09T23:10:15.836Z,1.80
2019-02-09T23:12:48.628Z,1.63
2019-02-09T23:15:18.620Z,1.90
2019-02-09T23:17:48.549Z,1.80
2019-02-09T23:20:18.389Z,2.20
2019-02-09T23:22:48.975Z,1.83
2019-02-09T23:25:19.943Z,1.73
2019-02-09T23:27:49.842Z,1.73
2019-02-09T23:30:21.939Z,1.67
2019-02-09T23:32:52.695Z,1.77
2019-02-09T23:35:22.873Z,1.60
2019-02-09T23:37:52.674Z,1.90
2019-02-09T23:40:23.394Z,1.60
2019-02-09T23:42:54.322Z,2.00
2019-02-09T23:45:24.290Z,2.03
2019-02-09T23:47:54.112Z,1.60
2019-02-09T23:50:24.598Z,1.60
2019-02-09T23:52:54.448Z,1.73
2019-02-09T23:55:25.198Z,1.37
2019-02-09T23:57:55.527Z,1.97
